Time;durP1;ratioP1;P1;durP2;ratioP2;P2;SDS_P1;SDS_P2;PMS_P1;PMS_P2;Temp;Humidity;BMP_temperature;BMP_pressure;BME280_temperature;BME280_humidity;BME280_pressure;Samples;Min_cycle;Max_cycle;Signal;HPM_P1;HPM_P2
2022/11/20 00:02:25;;;;;;;64.47;24.77;;;0.60;99.90;;;;;;4985859;28;20113;-87
2022/11/20 00:04:50;;;;;;;71.57;25.73;;;0.60;99.90;;;;;;4988411;28;20035;-87
2022/11/20 00:07:41;;;;;;;71.32;24.27;;;0.60;99.90;;;;;;4989224;28;20493;-87
2022/11/20 00:10:07;;;;;;;70.20;24.60;;;0.60;99.90;;;;;;4984190;28;20379;-87
2022/11/20 00:12:33;;;;;;;64.53;23.33;;;0.60;99.90;;;;;;4971650;28;20023;-87
2022/11/20 00:14:58;;;;;;;66.97;24.05;;;0.60;99.90;;;;;;4977568;28;20081;-87
2022/11/20 00:17:24;;;;;;;71.38;23.23;;;0.70;99.90;;;;;;4968790;28;20371;-87
2022/11/20 00:19:59;;;;;;;74.30;23.48;;;0.70;99.90;;;;;;4987640;28;20026;-87
2022/11/20 00:22:31;;;;;;;66.18;23.40;;;0.70;99.90;;;;;;4988236;28;20106;-87
2022/11/20 00:24:57;;;;;;;77.70;27.30;;;0.70;99.90;;;;;;4966327;28;20037;-87
2022/11/20 00:27:23;;;;;;;80.38;26.60;;;0.70;99.90;;;;;;5003965;28;20039;-87
2022/11/20 00:29:49;;;;;;;72.57;24.10;;;0.70;99.90;;;;;;4987617;28;20382;-87
2022/11/20 00:32:14;;;;;;;73.68;24.10;;;0.60;99.90;;;;;;4988634;28;20034;-87
2022/11/20 00:34:40;;;;;;;74.30;25.08;;;0.70;99.90;;;;;;4985626;28;20029;-86
2022/11/20 00:37:06;;;;;;;72.78;24.10;;;0.70;99.90;;;;;;4988725;28;20461;-86
2022/11/20 00:39:31;;;;;;;74.28;24.95;;;0.70;99.90;;;;;;4986472;28;20106;-87
2022/11/20 00:41:57;;;;;;;76.78;25.95;;;0.70;99.90;;;;;;4988827;28;20130;-87
2022/11/20 00:45:09;;;;;;;74.97;27.80;;;0.80;99.90;;;;;;4988648;28;20132;-87
2022/11/20 00:47:35;;;;;;;72.70;24.23;;;0.90;99.90;;;;;;4984441;28;20034;-87
2022/11/20 00:53:24;;;;;;;74.20;24.23;;;0.90;99.90;;;;;;5000443;28;20134;-87
2022/11/20 00:56:01;;;;;;;63.60;23.58;;;0.90;99.90;;;;;;4992035;28;20045;-87
2022/11/20 00:58:36;;;;;;;62.92;21.52;;;0.90;99.90;;;;;;4985071;28;20027;-87
2022/11/20 01:01:04;;;;;;;64.47;22.40;;;1.00;99.90;;;;;;4977967;28;20467;-87
2022/11/20 01:03:39;;;;;;;76.70;23.73;;;0.90;99.90;;;;;;4977919;28;20027;-87
2022/11/20 01:06:39;;;;;;;76.93;23.40;;;0.90;99.90;;;;;;4991031;28;20030;-87
2022/11/20 01:09:11;;;;;;;62.50;22.27;;;1.00;99.90;;;;;;4987466;28;20031;-87
2022/11/20 01:11:40;;;;;;;67.30;22.85;;;1.00;99.90;;;;;;4970688;28;20038;-87
2022/11/20 01:14:09;;;;;;;73.75;24.70;;;1.00;99.90;;;;;;4987778;28;20084;-87
2022/11/20 01:16:40;;;;;;;71.35;24.20;;;1.00;99.90;;;;;;4987444;28;20041;-87
2022/11/20 01:19:11;;;;;;;69.38;24.25;;;0.90;99.90;;;;;;4987921;28;20073;-87
2022/11/20 01:21:39;;;;;;;73.18;23.23;;;0.90;99.90;;;;;;5003631;28;20057;-87
2022/11/20 01:24:07;;;;;;;65.55;20.55;;;0.90;99.90;;;;;;4988308;28;20034;-87
2022/11/20 01:26:36;;;;;;;52.72;17.90;;;0.90;99.90;;;;;;4987638;28;20022;-87
2022/11/20 01:29:03;;;;;;;55.92;19.23;;;1.00;99.90;;;;;;5000641;28;20150;-87
2022/11/20 01:31:32;;;;;;;99.85;24.67;;;1.00;99.90;;;;;;4989333;28;20038;-87
2022/11/20 01:34:00;;;;;;;86.15;23.13;;;1.00;99.90;;;;;;4979696;28;20086;-87
2022/11/20 01:36:28;;;;;;;69.45;20.45;;;0.90;99.90;;;;;;4990636;28;20462;-87
2022/11/20 01:38:56;;;;;;;82.97;22.77;;;1.00;99.90;;;;;;4984053;28;20042;-87
2022/11/20 01:44:11;;;;;;;254.18;30.55;;;1.00;99.90;;;;;;4996022;28;20031;-87
2022/11/20 01:46:39;;;;;;;137.65;24.40;;;1.00;99.90;;;;;;4984003;28;20043;-88
2022/11/20 01:49:11;;;;;;;89.75;19.40;;;0.90;99.90;;;;;;4986554;28;20122;-87
2022/11/20 01:51:50;;;;;;;;;;;0.90;99.90;;;;;;5001855;28;20062;-88
2022/11/20 01:54:35;;;;;;;308.70;26.77;;;1.00;99.90;;;;;;5002583;28;20321;-87
2022/11/20 01:57:04;;;;;;;495.60;37.08;;;1.10;99.90;;;;;;4965671;28;20370;-88
2022/11/20 01:59:30;;;;;;;229.00;24.95;;;1.10;99.90;;;;;;4988283;28;20015;-88
2022/11/20 02:01:56;;;;;;;264.40;25.38;;;1.10;99.90;;;;;;5003681;28;20022;-87
2022/11/20 02:04:24;;;;;;;534.85;37.53;;;1.10;99.90;;;;;;4987104;28;20489;-88
2022/11/20 02:07:08;;;;;;;550.90;42.97;;;1.20;99.90;;;;;;4986141;28;20356;-88
2022/11/20 02:09:33;;;;;;;681.47;45.25;;;1.10;99.90;;;;;;5002491;28;20026;-88
2022/11/20 02:15:17;;;;;;;568.83;42.70;;;1.00;99.90;;;;;;4990600;28;20026;-88
2022/11/20 02:17:43;;;;;;;655.78;49.67;;;1.10;99.90;;;;;;4969632;28;20037;-87
2022/11/20 02:20:09;;;;;;;345.40;32.47;;;1.10;99.90;;;;;;5000259;28;20023;-88
2022/11/20 02:22:45;;;;;;;414.08;30.80;;;1.10;99.90;;;;;;4987118;28;20035;-88
2022/11/20 02:25:11;;;;;;;370.23;32.22;;;1.20;99.90;;;;;;4977033;28;20035;-88
2022/11/20 02:27:37;;;;;;;280.42;29.48;;;1.20;99.90;;;;;;4984487;28;20118;-88
2022/11/20 02:30:07;;;;;;;645.83;46.40;;;1.20;99.90;;;;;;4987170;28;20049;-88
2022/11/20 02:32:35;;;;;;;176.88;25.95;;;1.20;99.90;;;;;;4985532;28;20042;-88
2022/11/20 02:35:20;;;;;;;245.27;27.92;;;1.30;99.90;;;;;;4987248;28;20041;-88
2022/11/20 02:37:52;;;;;;;288.20;28.20;;;1.40;99.90;;;;;;5002764;28;20069;-87
2022/11/20 02:40:18;;;;;;;475.63;34.72;;;1.40;99.90;;;;;;5003441;28;20053;-88
2022/11/20 02:42:44;;;;;;;128.77;19.80;;;1.40;99.90;;;;;;5001632;28;20379;-88
2022/11/20 02:45:11;;;;;;;285.73;26.90;;;1.40;99.90;;;;;;4986816;28;20042;-87
2022/11/20 02:47:36;;;;;;;474.13;32.60;;;1.50;99.90;;;;;;4985196;28;20030;-88
2022/11/20 02:50:04;;;;;;;194.13;23.70;;;1.60;99.90;;;;;;4986696;28;20141;-87
2022/11/20 02:52:30;;;;;;;275.70;24.63;;;1.60;99.90;;;;;;5003003;28;20596;-88
2022/11/20 02:54:56;;;;;;;672.92;46.58;;;1.70;99.90;;;;;;4986643;28;20034;-87
2022/11/20 02:57:21;;;;;;;314.77;25.10;;;1.70;99.90;;;;;;4989528;28;20026;-87
2022/11/20 03:00:16;;;;;;;359.83;25.83;;;1.70;99.90;;;;;;4990593;28;20053;-87
2022/11/20 03:02:42;;;;;;;359.23;28.35;;;1.60;99.90;;;;;;4991476;28;20034;-87
2022/11/20 03:05:08;;;;;;;453.70;29.55;;;1.70;99.90;;;;;;4993537;28;20355;-88
2022/11/20 03:07:33;;;;;;;524.38;34.90;;;1.70;99.90;;;;;;4993029;28;20093;-87
2022/11/20 03:09:59;;;;;;;571.92;37.35;;;1.60;99.90;;;;;;4977023;28;20049;-87
2022/11/20 03:12:25;;;;;;;423.23;28.52;;;1.70;99.90;;;;;;5009230;28;20030;-87
2022/11/20 03:14:50;;;;;;;82.43;18.05;;;1.60;99.90;;;;;;4989506;28;20037;-86
2022/11/20 03:17:16;;;;;;;61.95;14.77;;;1.60;99.90;;;;;;4993360;28;20113;-86
2022/11/20 03:19:42;;;;;;;116.53;18.83;;;1.70;99.90;;;;;;5007424;28;20084;-86
2022/11/20 03:22:41;;;;;;;186.55;18.88;;;1.70;99.90;;;;;;4989756;28;20050;-87
2022/11/20 03:25:07;;;;;;;99.72;15.32;;;1.80;99.90;;;;;;4997058;28;20121;-88
2022/11/20 03:27:34;;;;;;;187.60;19.42;;;1.90;99.90;;;;;;4987431;28;20125;-87
2022/11/20 03:30:00;;;;;;;39.60;13.00;;;1.80;99.90;;;;;;5009480;28;20061;-87
2022/11/20 03:32:25;;;;;;;238.50;21.42;;;1.90;99.90;;;;;;4991029;28;20072;-88
2022/11/20 03:34:51;;;;;;;174.77;21.17;;;1.90;99.90;;;;;;4992206;28;20429;-87
2022/11/20 03:37:17;;;;;;;218.05;21.55;;;1.90;99.90;;;;;;4977233;28;20427;-87
2022/11/20 03:39:42;;;;;;;161.50;18.48;;;1.90;99.90;;;;;;4991091;28;20045;-88
2022/11/20 03:42:44;;;;;;;87.72;17.30;;;2.00;99.90;;;;;;4991965;28;20023;-87
2022/11/20 03:44:54;;;;;;;145.18;17.90;;;2.00;99.90;;;;;;4987022;28;20385;-87
2022/11/20 03:47:20;;;;;;;98.35;16.25;;;2.10;99.90;;;;;;4991933;28;20094;-87
2022/11/20 03:49:45;;;;;;;88.43;16.95;;;2.10;99.90;;;;;;4991275;28;20027;-87
2022/11/20 03:52:11;;;;;;;41.97;13.80;;;2.20;99.90;;;;;;4992594;28;20034;-88
2022/11/20 03:54:37;;;;;;;58.03;16.23;;;2.30;99.90;;;;;;4990815;28;20027;-87
2022/11/20 03:57:02;;;;;;;50.85;16.65;;;2.40;99.90;;;;;;4992571;28;20026;-88
2022/11/20 03:59:28;;;;;;;66.22;16.58;;;2.50;99.90;;;;;;4992732;28;20151;-88
2022/11/20 04:01:53;;;;;;;70.25;18.42;;;2.60;99.90;;;;;;4992164;28;20030;-88
2022/11/20 04:04:19;;;;;;;153.85;24.77;;;2.70;99.90;;;;;;4992051;28;20473;-88
2022/11/20 04:06:54;;;;;;;128.38;25.85;;;2.70;99.90;;;;;;4991387;28;20034;-88
2022/11/20 04:09:20;;;;;;;173.15;29.10;;;2.80;99.90;;;;;;4974087;28;20449;-88
2022/11/20 04:11:48;;;;;;;258.05;31.85;;;2.80;99.90;;;;;;4988221;28;20061;-88
2022/11/20 04:14:15;;;;;;;645.60;49.33;;;2.80;99.90;;;;;;4973519;28;20026;-88
2022/11/20 04:16:42;;;;;;;458.40;39.95;;;2.90;99.90;;;;;;4988724;28;20047;-88
2022/11/20 04:19:11;;;;;;;779.15;69.93;;;2.90;99.90;;;;;;4989543;28;20015;-88
2022/11/20 04:21:37;;;;;;;236.30;24.50;;;2.90;99.90;;;;;;5005013;28;20037;-88
2022/11/20 04:24:03;;;;;;;1086.05;81.78;;;2.90;99.90;;;;;;4989405;28;20117;-88
2022/11/20 04:26:30;;;;;;;1003.33;75.82;;;2.90;99.90;;;;;;4989130;28;20034;-87
2022/11/20 04:28:57;;;;;;;509.40;42.58;;;3.00;99.90;;;;;;4985916;28;20072;-87
2022/11/20 04:35:16;;;;;;;1183.78;95.53;;;3.00;99.90;;;;;;4980101;28;20089;-88
2022/11/20 04:37:42;;;;;;;707.75;56.38;;;3.00;99.90;;;;;;4999742;28;20043;-87
2022/11/20 04:40:08;;;;;;;1005.03;69.53;;;3.00;99.90;;;;;;4988409;28;20026;-87
2022/11/20 04:42:33;;;;;;;798.38;60.38;;;3.00;99.90;;;;;;4988084;28;20049;-88
2022/11/20 04:44:59;;;;;;;834.60;64.32;;;3.00;99.90;;;;;;4988929;28;20038;-87
2022/11/20 04:47:25;;;;;;;690.58;52.60;;;3.00;99.90;;;;;;5003699;28;20525;-88
2022/11/20 04:49:50;;;;;;;872.63;66.93;;;3.00;99.90;;;;;;4988071;28;20031;-88
2022/11/20 04:52:16;;;;;;;364.50;30.75;;;3.00;99.90;;;;;;4988877;28;20034;-88
2022/11/20 04:54:42;;;;;;;505.77;40.88;;;3.00;99.90;;;;;;4987401;28;20078;-88
2022/11/20 04:57:07;;;;;;;215.18;25.48;;;3.00;99.90;;;;;;4988370;28;20026;-88
2022/11/20 04:59:33;;;;;;;155.20;23.15;;;3.00;99.90;;;;;;4988046;28;20440;-88
2022/11/20 05:01:58;;;;;;;599.22;46.65;;;3.00;99.90;;;;;;4988843;28;20066;-88
2022/11/20 05:04:24;;;;;;;363.92;33.90;;;3.00;99.90;;;;;;4987574;28;20046;-88
2022/11/20 05:06:50;;;;;;;157.82;26.80;;;3.00;99.90;;;;;;4987707;28;20030;-88
2022/11/20 05:09:16;;;;;;;64.32;20.25;;;2.90;99.90;;;;;;4971932;28;20041;-88
2022/11/20 05:11:41;;;;;;;52.55;17.58;;;3.00;99.90;;;;;;4970678;28;20030;-88
2022/11/20 05:14:07;;;;;;;52.72;17.60;;;3.00;99.90;;;;;;4972535;28;20113;-88
2022/11/20 05:16:35;;;;;;;50.88;17.88;;;2.90;99.90;;;;;;4971822;28;20031;-88
2022/11/20 05:19:38;;;;;;;40.92;14.88;;;2.90;99.90;;;;;;4988817;28;20050;-88
2022/11/20 05:22:05;;;;;;;44.33;14.60;;;3.00;99.90;;;;;;4980752;28;20027;-88
2022/11/20 05:24:30;;;;;;;31.70;13.38;;;2.90;99.90;;;;;;4991581;28;20045;-88
2022/11/20 05:26:56;;;;;;;44.22;14.57;;;3.00;99.90;;;;;;4998057;28;20032;-88
2022/11/20 05:29:22;;;;;;;38.80;13.77;;;3.00;99.90;;;;;;4984155;28;20031;-88
2022/11/20 05:31:47;;;;;;;36.83;14.18;;;3.00;99.90;;;;;;4990032;28;20050;-88
2022/11/20 05:34:13;;;;;;;44.05;15.10;;;3.00;99.90;;;;;;5000255;28;20158;-88
2022/11/20 05:36:38;;;;;;;39.00;15.20;;;3.00;99.90;;;;;;4990869;28;20031;-88
2022/11/20 05:39:04;;;;;;;46.20;16.73;;;3.00;99.90;;;;;;4983881;28;20023;-88
2022/11/20 05:41:30;;;;;;;43.70;15.57;;;3.10;99.90;;;;;;4991265;28;20089;-88
2022/11/20 05:43:56;;;;;;;45.10;16.58;;;3.00;99.90;;;;;;4983553;28;20035;-88
2022/11/20 05:46:22;;;;;;;39.40;14.45;;;3.00;99.90;;;;;;4983961;28;20479;-88
2022/11/20 05:48:48;;;;;;;48.35;16.95;;;3.00;99.90;;;;;;4989694;28;20126;-87
2022/11/20 05:51:16;;;;;;;39.45;14.63;;;3.10;99.90;;;;;;4983432;28;20474;-87
2022/11/20 05:53:42;;;;;;;50.88;15.93;;;3.10;99.90;;;;;;4988379;28;20540;-87
2022/11/20 05:56:39;;;;;;;43.20;16.50;;;3.10;99.90;;;;;;4983428;28;20109;-88
2022/11/20 05:59:05;;;;;;;51.88;16.98;;;3.10;99.90;;;;;;4990031;28;20031;-87
2022/11/20 06:01:30;;;;;;;37.85;14.13;;;3.10;99.90;;;;;;4982697;28;20118;-88
2022/11/20 06:03:56;;;;;;;40.15;14.60;;;3.10;99.90;;;;;;4983102;28;20034;-88
2022/11/20 06:06:22;;;;;;;36.78;13.90;;;3.20;99.90;;;;;;4983352;28;20037;-88
2022/11/20 06:08:48;;;;;;;34.22;13.35;;;3.20;99.90;;;;;;4985172;28;20038;-88
2022/11/20 06:11:15;;;;;;;34.85;14.43;;;3.30;99.90;;;;;;4986863;28;20058;-87
2022/11/20 06:13:42;;;;;;;46.83;15.50;;;3.30;99.90;;;;;;4967328;28;20529;-88
2022/11/20 06:16:08;;;;;;;40.00;16.02;;;3.30;99.90;;;;;;4985930;28;20023;-87
2022/11/20 06:18:34;;;;;;;52.33;17.10;;;3.40;99.90;;;;;;4980322;28;20492;-88
2022/11/20 06:21:01;;;;;;;43.15;15.80;;;3.40;99.90;;;;;;4985907;28;20026;-88
2022/11/20 06:23:28;;;;;;;54.55;16.65;;;3.40;99.90;;;;;;4986224;28;20106;-88
2022/11/20 06:25:54;;;;;;;54.63;18.73;;;3.40;99.90;;;;;;4985999;28;20026;-88
2022/11/20 06:28:20;;;;;;;46.80;16.67;;;3.40;99.90;;;;;;5002590;28;20034;-88
2022/11/20 06:30:46;;;;;;;47.20;17.00;;;3.50;99.90;;;;;;4999849;28;20497;-88
2022/11/20 06:33:11;;;;;;;52.72;18.05;;;3.50;99.90;;;;;;4985273;28;20068;-88
2022/11/20 06:35:37;;;;;;;49.47;17.88;;;3.50;99.90;;;;;;4984337;28;20036;-88
2022/11/20 06:38:03;;;;;;;90.38;20.15;;;3.50;99.90;;;;;;4985789;28;20054;-87
2022/11/20 06:40:28;;;;;;;130.40;21.88;;;3.50;99.90;;;;;;4987005;28;20035;-88
2022/11/20 06:42:54;;;;;;;186.65;24.52;;;3.50;99.90;;;;;;4985605;28;20040;-88
2022/11/20 06:45:21;;;;;;;158.30;22.98;;;3.60;99.90;;;;;;4995092;28;20075;-89
2022/11/20 06:47:47;;;;;;;298.50;28.23;;;3.60;99.90;;;;;;4974319;28;20038;-89
2022/11/20 06:50:13;;;;;;;159.48;25.88;;;3.60;99.90;;;;;;4979758;28;20030;-88
2022/11/20 06:52:38;;;;;;;181.30;24.17;;;3.70;99.90;;;;;;4984065;28;20129;-89
2022/11/20 06:55:16;;;;;;;197.88;29.48;;;3.70;99.90;;;;;;5001676;28;20105;-89
2022/11/20 06:57:42;;;;;;;244.80;37.65;;;3.70;99.90;;;;;;4984808;28;20547;-89
2022/11/20 07:00:08;;;;;;;225.30;35.35;;;3.70;99.90;;;;;;5001085;28;20046;-89
2022/11/20 07:02:34;;;;;;;126.50;27.80;;;3.80;99.90;;;;;;4968332;28;20034;-89
2022/11/20 07:04:59;;;;;;;65.68;17.80;;;3.70;99.90;;;;;;4982919;28;20027;-89
2022/11/20 07:07:25;;;;;;;47.50;17.58;;;3.80;99.90;;;;;;4985150;28;20371;-89
2022/11/20 07:09:50;;;;;;;65.15;21.23;;;3.80;99.90;;;;;;5000166;28;20474;-88
2022/11/20 07:12:16;;;;;;;105.50;23.48;;;3.80;99.90;;;;;;4985088;28;20034;-89
2022/11/20 07:14:42;;;;;;;67.90;21.10;;;3.80;99.90;;;;;;4984446;28;20165;-88
2022/11/20 07:17:08;;;;;;;107.47;21.83;;;3.80;99.90;;;;;;5001571;28;20026;-89
2022/11/20 07:19:33;;;;;;;123.18;24.38;;;3.80;99.90;;;;;;4985262;28;20081;-88
2022/11/20 07:21:59;;;;;;;100.32;23.73;;;3.90;99.90;;;;;;4982234;28;20023;-89
2022/11/20 07:24:24;;;;;;;79.10;22.35;;;3.90;99.90;;;;;;4988920;28;20030;-89
2022/11/20 07:27:18;;;;;;;61.22;21.60;;;3.90;99.90;;;;;;4983359;28;20109;-89
2022/11/20 07:29:44;;;;;;;74.82;22.50;;;3.90;99.90;;;;;;5000003;28;20054;-89
2022/11/20 07:32:09;;;;;;;66.07;20.73;;;3.90;99.90;;;;;;4985963;28;20034;-89
2022/11/20 07:34:35;;;;;;;129.95;29.15;;;3.90;99.90;;;;;;4974584;28;20042;-89
2022/11/20 07:37:01;;;;;;;691.20;59.95;;;3.90;99.90;;;;;;4978312;28;20069;-88
2022/11/20 07:39:26;;;;;;;770.67;59.55;;;3.90;99.90;;;;;;4967627;28;20039;-88
2022/11/20 07:41:52;;;;;;;991.88;66.65;;;3.90;99.90;;;;;;4970758;28;20118;-89
2022/11/20 07:44:18;;;;;;;452.80;35.08;;;4.00;99.90;;;;;;4961963;28;20078;-89
2022/11/20 07:46:43;;;;;;;831.78;54.78;;;4.00;99.90;;;;;;4970033;28;20031;-89
2022/11/20 07:49:09;;;;;;;1149.63;70.85;;;4.10;99.90;;;;;;4972449;28;20032;-89
2022/11/20 07:51:35;;;;;;;1048.93;65.32;;;4.10;99.90;;;;;;4957694;28;20171;-88
2022/11/20 07:54:00;;;;;;;1068.40;68.35;;;4.10;99.90;;;;;;4976188;28;20193;-88
2022/11/20 07:56:26;;;;;;;806.15;56.67;;;4.10;99.90;;;;;;4993008;28;20482;-87
2022/11/20 07:58:52;;;;;;;358.30;38.65;;;4.10;99.90;;;;;;4976108;28;20182;-87
2022/11/20 08:01:17;;;;;;;513.67;52.80;;;4.10;99.90;;;;;;4976373;28;20101;-88
2022/11/20 08:04:05;;;;;;;311.13;40.25;;;4.20;99.90;;;;;;4976647;28;20034;-87
2022/11/20 08:06:31;;;;;;;136.05;35.88;;;4.10;99.90;;;;;;4989086;28;20027;-87
2022/11/20 08:08:57;;;;;;;138.90;31.70;;;4.20;99.90;;;;;;4967321;28;20034;-87
2022/11/20 08:14:13;;;;;;;262.25;32.72;;;4.20;99.90;;;;;;4982848;28;20033;-87
2022/11/20 08:16:49;;;;;;;563.20;54.30;;;4.20;99.90;;;;;;4970666;28;20035;-88
2022/11/20 08:19:17;;;;;;;1161.20;90.65;;;4.30;99.90;;;;;;5000847;28;20188;-87
2022/11/20 08:21:43;;;;;;;930.88;67.30;;;4.30;99.90;;;;;;4961678;28;20057;-87
2022/11/20 08:24:10;;;;;;;1047.40;72.65;;;4.30;99.90;;;;;;4959745;28;20079;-88
2022/11/20 08:26:37;;;;;;;556.63;47.50;;;4.30;99.90;;;;;;4990422;28;20047;-87
2022/11/20 08:29:04;;;;;;;736.53;59.85;;;4.40;99.90;;;;;;4959780;28;20027;-87
2022/11/20 08:31:30;;;;;;;1255.10;94.88;;;4.40;99.90;;;;;;4972315;28;20041;-88
2022/11/20 08:33:56;;;;;;;1057.22;87.50;;;4.40;99.90;;;;;;4959312;28;20085;-87
2022/11/20 08:36:23;;;;;;;706.80;67.72;;;4.40;99.90;;;;;;4987874;28;20031;-88
2022/11/20 08:38:50;;;;;;;1035.55;78.43;;;4.40;99.90;;;;;;4974495;28;20031;-87
2022/11/20 08:41:26;;;;;;;1487.63;106.22;;;4.40;99.90;;;;;;4968946;28;20076;-87
2022/11/20 08:44:07;;;;;;;861.85;73.38;;;4.40;99.90;;;;;;4969905;28;20038;-88
2022/11/20 08:46:43;;;;;;;701.35;57.30;;;4.40;99.90;;;;;;4966334;28;20035;-87
2022/11/20 08:49:11;;;;;;;1159.70;82.85;;;4.50;99.90;;;;;;4973517;28;20038;-88
2022/11/20 08:51:38;;;;;;;267.00;34.10;;;4.50;99.90;;;;;;4965326;28;20035;-87
2022/11/20 08:54:04;;;;;;;388.77;44.30;;;4.50;99.90;;;;;;4984352;28;20172;-88
2022/11/20 08:56:30;;;;;;;733.20;63.42;;;4.50;99.90;;;;;;4974610;28;20101;-87
2022/11/20 08:58:59;;;;;;;310.92;42.45;;;4.50;99.90;;;;;;4974702;28;20022;-87
2022/11/20 09:01:25;;;;;;;535.60;58.55;;;4.50;99.90;;;;;;4983937;28;20754;-87
2022/11/20 09:03:51;;;;;;;82.10;31.17;;;4.50;99.90;;;;;;4974418;28;20372;-88
2022/11/20 09:09:43;;;;;;;47.28;21.65;;;4.50;99.90;;;;;;4989057;28;20122;-87
2022/11/20 09:12:09;;;;;;;62.88;25.65;;;4.50;99.90;;;;;;4980395;28;20498;-87
2022/11/20 09:14:36;;;;;;;66.47;26.85;;;4.50;99.90;;;;;;4958524;28;20078;-90
2022/11/20 09:17:02;;;;;;;72.47;28.25;;;4.50;99.90;;;;;;4983334;28;20085;-87
2022/11/20 09:19:27;;;;;;;74.45;28.63;;;4.50;99.90;;;;;;4986438;28;20045;-86
2022/11/20 09:21:53;;;;;;;69.28;27.20;;;4.60;99.90;;;;;;4960383;28;20350;-88
2022/11/20 09:24:20;;;;;;;70.22;28.35;;;4.60;99.90;;;;;;4988562;28;20034;-89
2022/11/20 09:26:46;;;;;;;66.78;28.90;;;4.60;99.90;;;;;;4999333;28;20030;-88
2022/11/20 09:29:12;;;;;;;68.93;26.95;;;4.70;99.90;;;;;;4979237;28;20027;-88
2022/11/20 09:31:38;;;;;;;63.30;28.02;;;4.60;99.90;;;;;;4981601;28;20031;-85
2022/11/20 09:34:03;;;;;;;62.97;26.75;;;4.60;99.90;;;;;;5002370;28;20084;-88
2022/11/20 09:36:29;;;;;;;68.35;28.20;;;4.60;99.90;;;;;;4984646;28;20034;-88
2022/11/20 09:38:56;;;;;;;55.40;25.45;;;4.60;99.90;;;;;;4985868;28;20026;-87
2022/11/20 09:41:54;;;;;;;79.35;34.63;;;4.60;99.90;;;;;;4986129;28;20069;-89
2022/11/20 09:44:28;;;;;;;74.00;29.55;;;4.70;99.90;;;;;;4987285;28;20042;-89
2022/11/20 09:47:08;;;;;;;72.28;32.13;;;4.70;99.90;;;;;;5012519;28;20085;-88
2022/11/20 09:49:53;;;;;;;57.28;27.10;;;4.70;99.90;;;;;;4985492;28;20038;-87
2022/11/20 09:52:32;;;;;;;61.80;27.65;;;4.70;99.90;;;;;;4999101;28;20038;-87
2022/11/20 09:55:03;;;;;;;66.00;28.80;;;4.70;99.90;;;;;;4966570;28;20121;-88
2022/11/20 09:57:38;;;;;;;68.30;29.13;;;4.70;99.90;;;;;;4995260;28;20035;-88
2022/11/20 10:00:10;;;;;;;67.78;30.05;;;4.80;99.90;;;;;;4992729;28;20037;-88
2022/11/20 10:03:11;;;;;;;67.45;29.40;;;4.80;99.90;;;;;;4997687;28;20031;-87
2022/11/20 10:05:51;;;;;;;88.47;38.83;;;4.80;99.90;;;;;;4969962;28;20034;-87
2022/11/20 10:08:30;;;;;;;63.78;30.00;;;4.80;99.90;;;;;;4984604;28;20026;-88
2022/11/20 10:11:29;;;;;;;59.35;26.33;;;4.80;99.90;;;;;;4983431;28;20022;-87
2022/11/20 10:14:23;;;;;;;58.38;27.25;;;4.80;99.90;;;;;;4982034;28;20490;-88
2022/11/20 10:17:25;;;;;;;65.57;29.48;;;4.80;99.90;;;;;;4989067;28;20068;-88
2022/11/20 10:20:09;;;;;;;;;;;4.80;99.90;;;;;;4984299;28;20034;-88
2022/11/20 10:23:06;;;;;;;56.13;26.70;;;4.80;99.90;;;;;;4996433;28;19989;-87
2022/11/20 10:25:39;;;;;;;58.28;26.42;;;4.80;99.90;;;;;;4985915;28;20038;-88
2022/11/20 10:28:35;;;;;;;80.95;36.03;;;4.90;99.90;;;;;;4984897;28;20050;-87
2022/11/20 10:31:04;;;;;;;61.53;26.80;;;4.90;99.90;;;;;;4977074;28;20085;-88
2022/11/20 10:33:54;;;;;;;64.47;28.58;;;4.90;99.90;;;;;;4983347;28;20041;-88
2022/11/20 10:36:31;;;;;;;67.50;26.70;;;4.90;99.90;;;;;;4962523;28;20520;-87
2022/11/20 10:39:06;;;;;;;68.72;28.80;;;4.90;99.90;;;;;;4982443;28;20363;-88
2022/11/20 10:41:39;;;;;;;68.63;29.40;;;4.90;99.90;;;;;;4999076;28;20061;-89
2022/11/20 10:44:12;;;;;;;74.55;31.15;;;4.90;99.90;;;;;;4986431;28;20038;-88
2022/11/20 10:46:44;;;;;;;53.50;26.58;;;4.90;99.90;;;;;;4983887;28;20125;-87
2022/11/20 10:49:17;;;;;;;67.53;31.92;;;4.90;99.90;;;;;;4981923;28;20035;-88
2022/11/20 10:52:10;;;;;;;69.78;32.13;;;4.90;99.90;;;;;;4969660;28;20034;-88
2022/11/20 10:54:42;;;;;;;68.45;31.50;;;5.00;99.90;;;;;;4968430;28;20059;-88
2022/11/20 10:57:19;;;;;;;58.15;27.33;;;5.00;99.90;;;;;;4973173;28;20450;-87
2022/11/20 10:59:50;;;;;;;70.43;38.88;;;5.00;99.90;;;;;;5005768;28;20112;-88
2022/11/20 11:02:22;;;;;;;62.15;28.85;;;5.00;99.90;;;;;;4974389;28;20034;-87
2022/11/20 11:04:51;;;;;;;59.42;29.20;;;5.00;99.90;;;;;;4988737;28;20035;-87
2022/11/20 11:07:17;;;;;;;66.47;31.15;;;5.10;99.90;;;;;;4956392;28;20055;-88
2022/11/20 11:09:52;;;;;;;72.80;31.80;;;5.10;99.90;;;;;;4973111;28;20418;-88
2022/11/20 11:12:20;;;;;;;45.35;24.48;;;5.10;99.90;;;;;;4972991;28;20406;-88
2022/11/20 11:14:51;;;;;;;38.47;16.88;;;5.00;99.90;;;;;;4980517;28;20030;-87
2022/11/20 11:17:21;;;;;;;23.10;13.00;;;4.90;99.90;;;;;;4971102;28;20055;-88
2022/11/20 11:20:02;;;;;;;27.52;13.25;;;4.80;99.90;;;;;;4991801;28;20074;-88
2022/11/20 11:22:31;;;;;;;29.45;16.50;;;4.70;99.90;;;;;;4993135;28;20061;-88
2022/11/20 11:24:56;;;;;;;35.45;17.17;;;4.80;99.90;;;;;;4969878;28;20431;-88
2022/11/20 11:27:22;;;;;;;35.95;19.50;;;4.80;99.90;;;;;;4977016;28;20161;-89
2022/11/20 11:29:48;;;;;;;36.25;19.83;;;4.80;99.90;;;;;;4977263;28;20089;-88
2022/11/20 11:32:21;;;;;;;38.08;18.23;;;4.80;99.90;;;;;;4978939;28;20035;-89
2022/11/20 11:35:06;;;;;;;37.05;19.90;;;4.80;99.90;;;;;;4977135;28;20066;-87
2022/11/20 11:37:37;;;;;;;38.10;19.38;;;4.80;99.90;;;;;;4976555;28;20041;-89
2022/11/20 11:46:53;;;;;;;27.80;14.40;;;4.80;99.90;;;;;;4986494;28;20882;-89
2022/11/20 11:49:19;;;;;;;28.55;16.05;;;4.80;99.90;;;;;;4960439;28;20765;-89
2022/11/20 11:51:51;;;;;;;20.35;12.55;;;4.70;99.90;;;;;;4984144;28;20509;-88
2022/11/20 11:54:27;;;;;;;22.45;12.98;;;4.60;99.90;;;;;;4988524;28;20039;-88
2022/11/20 11:56:54;;;;;;;17.35;9.68;;;4.70;99.90;;;;;;4987783;28;20031;-88
2022/11/20 11:59:41;;;;;;;18.05;10.32;;;4.60;99.90;;;;;;4975297;28;20109;-89
2022/11/20 12:02:25;;;;;;;20.05;12.68;;;4.70;99.90;;;;;;4976499;28;20023;-88
2022/11/20 12:04:58;;;;;;;19.08;12.23;;;4.70;99.90;;;;;;4995817;28;20039;-89
2022/11/20 12:07:39;;;;;;;21.40;12.18;;;4.60;99.90;;;;;;4957415;28;20042;-88
2022/11/20 12:10:12;;;;;;;19.48;12.45;;;4.50;99.90;;;;;;4996556;28;20690;-89
2022/11/20 12:12:44;;;;;;;18.52;8.75;;;4.50;99.90;;;;;;4983133;28;20034;-89
2022/11/20 12:15:12;;;;;;;23.08;11.55;;;4.50;99.90;;;;;;4971627;28;20034;-89
2022/11/20 12:17:38;;;;;;;43.00;19.33;;;4.50;99.90;;;;;;4985512;28;20173;-89
2022/11/20 12:20:13;;;;;;;22.38;12.57;;;4.60;99.90;;;;;;4987731;28;20054;-89
2022/11/20 12:22:50;;;;;;;28.50;14.85;;;4.70;99.90;;;;;;5002161;28;20039;-88
2022/11/20 12:25:21;;;;;;;29.15;15.38;;;4.90;99.90;;;;;;4987344;28;20039;-88
2022/11/20 12:27:59;;;;;;;25.73;14.60;;;5.20;99.90;;;;;;4986671;28;20054;-87
2022/11/20 12:34:35;;;;;;;24.73;15.60;;;5.40;99.90;;;;;;4984440;28;20134;-86
2022/11/20 12:37:37;;;;;;;24.98;14.57;;;5.90;99.90;;;;;;4968242;28;20035;-87
2022/11/20 12:40:47;;;;;;;26.83;12.93;;;5.90;99.90;;;;;;4974353;28;20421;-87
2022/11/20 12:46:10;;;;;;;18.52;11.57;;;5.70;99.90;;;;;;4984384;28;20118;-88
2022/11/20 12:48:38;;;;;;;;;;;5.60;99.90;;;;;;5007089;28;20030;-88
2022/11/20 12:51:13;;;;;;;17.77;9.98;;;5.60;99.90;;;;;;4984411;28;20366;-88
2022/11/20 12:54:08;;;;;;;21.02;11.02;;;5.60;99.90;;;;;;4991282;28;20034;-87
2022/11/20 12:56:49;;;;;;;21.42;11.00;;;5.60;99.90;;;;;;4982019;28;20030;-88
2022/11/20 12:59:45;;;;;;;19.75;11.50;;;5.60;99.90;;;;;;4986788;28;20077;-88
2022/11/20 13:02:23;;;;;;;31.98;9.38;;;5.60;99.90;;;;;;4987307;28;20027;-87
2022/11/20 13:04:58;;;;;;;20.35;10.02;;;5.50;99.90;;;;;;4986455;28;20035;-88
2022/11/20 13:07:25;;;;;;;23.38;8.90;;;5.50;99.90;;;;;;4990722;28;20047;-88
2022/11/20 13:09:51;;;;;;;19.85;9.45;;;5.50;99.90;;;;;;4959854;28;20254;-89
2022/11/20 13:12:29;;;;;;;16.23;8.73;;;5.40;99.90;;;;;;4980236;28;20023;-89
2022/11/20 13:15:32;;;;;;;17.77;9.43;;;5.40;99.90;;;;;;4991468;28;20541;-89
2022/11/20 13:18:00;;;;;;;22.10;9.73;;;5.50;99.90;;;;;;4972403;28;20114;-89
2022/11/20 13:24:19;;;;;;;19.65;10.38;;;5.40;99.90;;;;;;4968467;28;20041;-89
2022/11/20 13:26:46;;;;;;;19.27;10.40;;;5.50;99.90;;;;;;4977400;28;20038;-89
2022/11/20 13:29:17;;;;;;;17.50;10.48;;;5.40;99.90;;;;;;4975121;28;20048;-89